Time;durP1;ratioP1;P1;durP2;ratioP2;P2;SDS_P1;SDS_P2;PMS_P1;PMS_P2;Temp;Humidity;BMP_temperature;BMP_pressure;BME280_temperature;BME280_humidity;BME280_pressure;Samples;Min_cycle;Max_cycle;Signal;HPM_P1;HPM_P2
2022/05/17 00:01:27;;;;;;;5.47;3.13;;;15.20;99.90;;;;;;5023401;28;20214;-45
2022/05/17 00:03:56;;;;;;;5.77;3.23;;;15.20;99.90;;;;;;5015624;28;20207;-47
2022/05/17 00:06:23;;;;;;;5.00;3.17;;;15.10;99.90;;;;;;5027514;28;20230;-45
2022/05/17 00:08:49;;;;;;;3.77;3.00;;;15.10;99.90;;;;;;5030076;28;20196;-46
2022/05/17 00:11:16;;;;;;;7.23;3.87;;;15.10;99.90;;;;;;5025611;28;20196;-45
2022/05/17 00:13:43;;;;;;;7.03;3.20;;;15.00;99.90;;;;;;5025445;28;20361;-45
2022/05/17 00:16:11;;;;;;;5.90;3.40;;;14.90;99.90;;;;;;5022391;28;20220;-52
2022/05/17 00:18:38;;;;;;;4.60;3.60;;;14.90;99.90;;;;;;5013449;28;20215;-47
2022/05/17 00:21:07;;;;;;;5.20;3.40;;;14.90;99.90;;;;;;5031378;28;20195;-46
2022/05/17 00:23:36;;;;;;;3.97;3.60;;;14.90;99.90;;;;;;5024023;28;20211;-45
2022/05/17 00:26:05;;;;;;;4.30;3.20;;;14.80;99.90;;;;;;5005965;28;20234;-47
2022/05/17 00:28:32;;;;;;;7.00;3.73;;;14.80;99.90;;;;;;5023623;28;20257;-45
2022/05/17 00:31:00;;;;;;;6.70;4.23;;;14.80;99.90;;;;;;5024860;28;20250;-48
2022/05/17 00:33:27;;;;;;;6.10;4.27;;;14.80;99.90;;;;;;5005397;28;20220;-45
2022/05/17 00:35:54;;;;;;;7.67;4.30;;;14.70;99.90;;;;;;5032323;28;20224;-45
2022/05/17 00:38:23;;;;;;;6.77;3.80;;;14.70;99.90;;;;;;5027422;28;20187;-45
2022/05/17 00:40:50;;;;;;;5.87;4.40;;;14.70;99.90;;;;;;5036933;28;20211;-45
2022/05/17 00:43:28;;;;;;;7.17;4.50;;;14.60;99.90;;;;;;5020770;28;20196;-48
2022/05/17 00:46:00;;;;;;;5.53;3.67;;;14.60;99.90;;;;;;5024994;28;20303;-47
2022/05/17 00:48:27;;;;;;;6.90;3.43;;;14.50;99.90;;;;;;5007693;28;20204;-47
2022/05/17 00:50:55;;;;;;;5.13;3.40;;;14.30;99.90;;;;;;5030674;28;20258;-45
2022/05/17 00:53:28;;;;;;;6.80;3.80;;;14.30;99.90;;;;;;5021768;28;20184;-45
2022/05/17 00:55:58;;;;;;;6.90;3.77;;;14.30;99.90;;;;;;5024993;28;20231;-45
2022/05/17 00:58:29;;;;;;;6.97;3.77;;;14.30;99.90;;;;;;5021897;28;20199;-46
2022/05/17 01:01:02;;;;;;;5.97;3.90;;;14.30;99.90;;;;;;5019076;28;20212;-47
2022/05/17 01:03:33;;;;;;;8.23;4.30;;;14.20;99.90;;;;;;5022678;28;20741;-48
2022/05/17 01:06:02;;;;;;;5.90;4.20;;;14.30;99.90;;;;;;5009131;28;20254;-52
2022/05/17 01:08:31;;;;;;;5.63;3.90;;;14.30;99.90;;;;;;5030765;28;20512;-46
2022/05/17 01:10:58;;;;;;;7.63;3.93;;;14.30;99.90;;;;;;5030624;28;20213;-49
2022/05/17 01:16:11;;;;;;;5.70;4.03;;;14.10;99.90;;;;;;5021513;28;20581;-47
2022/05/17 01:18:40;;;;;;;8.17;4.10;;;14.10;99.90;;;;;;5023984;28;20204;-47
2022/05/17 01:21:09;;;;;;;6.80;4.00;;;14.10;99.90;;;;;;5012697;28;20287;-48
2022/05/17 01:23:35;;;;;;;7.43;4.00;;;14.10;99.90;;;;;;5025868;28;20286;-45
2022/05/17 01:26:03;;;;;;;7.00;4.30;;;14.10;99.90;;;;;;5022879;28;20212;-51
2022/05/17 01:28:32;;;;;;;6.40;4.00;;;14.20;99.90;;;;;;5022242;28;20295;-51
2022/05/17 01:31:03;;;;;;;4.40;3.90;;;14.20;99.90;;;;;;5023628;28;20204;-46
2022/05/17 01:33:32;;;;;;;5.10;3.90;;;14.20;99.90;;;;;;5022009;28;20196;-48
2022/05/17 01:35:59;;;;;;;5.20;4.07;;;14.20;99.90;;;;;;5009023;28;20224;-48
2022/05/17 01:38:27;;;;;;;9.77;4.63;;;14.20;99.90;;;;;;5026975;28;20195;-46
2022/05/17 01:40:54;;;;;;;8.60;4.37;;;14.20;99.90;;;;;;5028961;28;20215;-49
2022/05/17 01:43:21;;;;;;;6.10;3.70;;;14.20;99.90;;;;;;5020054;28;20986;-47
2022/05/17 01:45:48;;;;;;;6.50;4.40;;;14.20;99.90;;;;;;5023941;28;20231;-47
2022/05/17 01:48:15;;;;;;;7.43;4.33;;;14.20;99.90;;;;;;5019800;28;20222;-48
2022/05/17 01:50:43;;;;;;;6.13;3.90;;;14.10;99.90;;;;;;5024036;28;20204;-45
2022/05/17 01:53:09;;;;;;;6.20;4.57;;;14.10;99.90;;;;;;5013974;28;20208;-45
2022/05/17 01:55:38;;;;;;;10.80;4.33;;;14.00;99.90;;;;;;5019348;28;20691;-47
2022/05/17 01:58:06;;;;;;;9.40;4.50;;;14.00;99.90;;;;;;5029582;28;20303;-50
2022/05/17 02:00:33;;;;;;;7.50;4.50;;;14.00;99.90;;;;;;5021940;28;20196;-48
2022/05/17 02:03:00;;;;;;;8.70;4.30;;;13.90;99.90;;;;;;5021794;28;20746;-50
2022/05/17 02:05:27;;;;;;;5.87;4.80;;;14.00;99.90;;;;;;5020643;28;20238;-45
2022/05/17 02:07:54;;;;;;;8.30;4.03;;;14.00;99.90;;;;;;5008662;28;20215;-49
2022/05/17 02:10:25;;;;;;;7.10;4.20;;;13.90;99.90;;;;;;5028185;28;20929;-46
2022/05/17 02:12:55;;;;;;;7.87;4.47;;;13.90;99.90;;;;;;5023710;28;20211;-47
2022/05/17 02:15:22;;;;;;;6.03;4.37;;;13.90;99.90;;;;;;5013225;28;20210;-45
2022/05/17 02:17:50;;;;;;;6.97;4.30;;;14.00;99.90;;;;;;5017617;28;20565;-48
2022/05/17 02:20:16;;;;;;;5.70;4.30;;;14.00;99.90;;;;;;5019586;28;20254;-45
2022/05/17 02:22:43;;;;;;;8.27;4.50;;;14.10;99.90;;;;;;5008840;28;20200;-46
2022/05/17 02:25:11;;;;;;;6.97;5.13;;;14.00;99.90;;;;;;5027860;28;20695;-46
2022/05/17 02:27:39;;;;;;;7.53;4.50;;;14.00;99.90;;;;;;5016650;28;20313;-44
2022/05/17 02:30:11;;;;;;;9.27;5.00;;;14.10;99.90;;;;;;5021388;28;20200;-45
2022/05/17 02:32:38;;;;;;;7.77;4.50;;;14.20;99.90;;;;;;5017383;28;20204;-45
2022/05/17 02:35:06;;;;;;;7.30;4.33;;;14.10;99.90;;;;;;5021170;28;20200;-51
2022/05/17 02:37:33;;;;;;;10.63;4.87;;;14.10;99.90;;;;;;5021832;28;20266;-45
2022/05/17 02:40:00;;;;;;;8.70;4.73;;;14.10;99.90;;;;;;5008615;28;20239;-45
2022/05/17 02:42:27;;;;;;;6.53;4.57;;;14.10;99.90;;;;;;5031178;28;20295;-49
2022/05/17 02:44:54;;;;;;;9.50;4.97;;;14.10;99.90;;;;;;5023038;28;20612;-48
2022/05/17 02:47:22;;;;;;;8.50;4.97;;;14.20;99.90;;;;;;5019387;28;20247;-46
2022/05/17 02:49:49;;;;;;;7.50;4.63;;;14.20;99.90;;;;;;5023375;28;20204;-48
2022/05/17 02:52:17;;;;;;;6.57;4.80;;;14.20;99.90;;;;;;5019321;28;20203;-45
2022/05/17 02:54:43;;;;;;;6.40;4.83;;;14.20;99.90;;;;;;5013503;28;20261;-46
2022/05/17 02:57:11;;;;;;;10.40;4.40;;;14.20;99.90;;;;;;5029662;28;20219;-46
2022/05/17 02:59:38;;;;;;;7.43;5.07;;;14.10;99.90;;;;;;5026713;28;20243;-46
2022/05/17 03:02:05;;;;;;;6.67;4.90;;;14.10;99.90;;;;;;5025554;28;20235;-52
2022/05/17 03:04:34;;;;;;;8.97;5.00;;;14.10;99.90;;;;;;5025267;28;20939;-46
2022/05/17 03:07:01;;;;;;;7.13;4.90;;;14.10;99.90;;;;;;5025844;28;20696;-48
2022/05/17 03:09:28;;;;;;;6.13;5.03;;;14.10;99.90;;;;;;5012911;28;20197;-45
2022/05/17 03:11:54;;;;;;;6.77;4.97;;;14.10;99.90;;;;;;5029113;28;20254;-46
2022/05/17 03:14:22;;;;;;;8.13;5.00;;;14.10;99.90;;;;;;5022555;28;20203;-45
2022/05/17 03:16:49;;;;;;;8.50;5.20;;;14.10;99.90;;;;;;5026915;28;20700;-44
2022/05/17 03:19:17;;;;;;;10.97;5.40;;;14.10;99.90;;;;;;5022726;28;20259;-44
2022/05/17 03:21:47;;;;;;;10.77;5.43;;;14.10;99.90;;;;;;5026646;28;20253;-47
2022/05/17 03:24:15;;;;;;;8.87;5.43;;;14.10;99.90;;;;;;5008175;28;20200;-47
2022/05/17 03:26:41;;;;;;;8.80;5.40;;;14.10;99.90;;;;;;5032536;28;20561;-44
2022/05/17 03:29:08;;;;;;;8.77;5.43;;;14.10;99.90;;;;;;5027362;28;20228;-45
2022/05/17 03:31:36;;;;;;;9.10;6.30;;;14.10;99.90;;;;;;5025708;28;20249;-45
2022/05/17 03:34:03;;;;;;;6.43;5.70;;;14.10;99.90;;;;;;5024801;28;20202;-44
2022/05/17 03:36:29;;;;;;;6.70;6.00;;;14.10;99.90;;;;;;5024171;28;20216;-46
2022/05/17 03:38:58;;;;;;;9.27;6.00;;;14.10;99.90;;;;;;5025249;28;20196;-45
2022/05/17 03:41:24;;;;;;;8.37;5.97;;;14.10;99.90;;;;;;5019981;28;20223;-44
2022/05/17 03:43:52;;;;;;;9.53;6.17;;;14.10;99.90;;;;;;5027373;28;20711;-47
2022/05/17 03:46:19;;;;;;;8.70;6.23;;;14.10;99.90;;;;;;5022528;28;20993;-44
2022/05/17 03:48:46;;;;;;;6.97;6.23;;;14.20;99.90;;;;;;5026229;28;20301;-46
2022/05/17 03:51:14;;;;;;;11.17;6.40;;;14.20;99.90;;;;;;5022903;28;20228;-45
2022/05/17 03:53:41;;;;;;;8.30;6.67;;;14.20;99.90;;;;;;5025841;28;20204;-44
2022/05/17 03:56:10;;;;;;;12.30;6.80;;;14.20;99.90;;;;;;5011158;28;20227;-46
2022/05/17 03:58:37;;;;;;;11.03;7.90;;;14.30;99.90;;;;;;5027340;28;20282;-48
2022/05/17 04:01:04;;;;;;;10.80;7.20;;;14.30;99.90;;;;;;5011832;28;20591;-46
2022/05/17 04:03:31;;;;;;;13.00;7.43;;;14.30;99.90;;;;;;5025720;28;20203;-49
2022/05/17 04:05:58;;;;;;;13.43;7.77;;;14.40;99.90;;;;;;5016878;28;20226;-49
2022/05/17 04:08:25;;;;;;;18.20;9.73;;;14.40;99.90;;;;;;5023799;28;20676;-48
2022/05/17 04:10:52;;;;;;;28.50;10.53;;;14.40;99.90;;;;;;5006362;28;20203;-47
2022/05/17 04:13:21;;;;;;;22.33;10.47;;;14.30;99.90;;;;;;5031153;28;20624;-48
2022/05/17 04:15:47;;;;;;;14.33;9.57;;;14.40;99.90;;;;;;5019602;28;20223;-44
2022/05/17 04:18:14;;;;;;;17.93;11.07;;;14.40;99.90;;;;;;5023004;28;20254;-45
2022/05/17 04:20:41;;;;;;;17.87;9.53;;;14.40;99.90;;;;;;5016876;28;20333;-48
2022/05/17 04:23:08;;;;;;;17.20;9.73;;;14.40;99.90;;;;;;5021731;28;20201;-44
2022/05/17 04:25:35;;;;;;;11.83;9.37;;;14.50;99.90;;;;;;5010873;28;20206;-44
2022/05/17 04:28:02;;;;;;;14.30;10.10;;;14.40;99.90;;;;;;5027304;28;20231;-44
2022/05/17 04:30:30;;;;;;;14.50;10.60;;;14.40;99.90;;;;;;5020312;28;20287;-47
2022/05/17 04:32:57;;;;;;;12.10;9.70;;;14.40;99.90;;;;;;5023293;28;20204;-45
2022/05/17 04:35:24;;;;;;;13.73;10.20;;;14.40;99.90;;;;;;5016054;28;20609;-50
2022/05/17 04:37:51;;;;;;;12.13;9.43;;;14.50;99.90;;;;;;5019063;28;20199;-45
2022/05/17 04:40:18;;;;;;;13.00;9.77;;;14.50;99.90;;;;;;5019477;28;20199;-47
2022/05/17 04:42:46;;;;;;;11.70;9.77;;;14.60;99.90;;;;;;5020469;28;20210;-45
2022/05/17 04:45:15;;;;;;;12.70;10.47;;;14.60;99.90;;;;;;5022095;28;20200;-50
2022/05/17 04:47:44;;;;;;;13.23;11.07;;;14.60;99.90;;;;;;5022735;28;20306;-44
2022/05/17 04:50:12;;;;;;;15.70;11.13;;;14.60;99.90;;;;;;5019911;28;20203;-46
2022/05/17 04:52:39;;;;;;;14.83;12.07;;;14.60;99.90;;;;;;5015335;28;20254;-47
2022/05/17 04:55:07;;;;;;;18.90;12.97;;;14.60;99.90;;;;;;5024120;28;20246;-45
2022/05/17 04:57:35;;;;;;;14.93;11.07;;;14.60;99.90;;;;;;5004204;28;20223;-52
2022/05/17 05:00:04;;;;;;;15.87;12.97;;;14.60;99.90;;;;;;5026036;28;20211;-48
2022/05/17 05:02:31;;;;;;;19.73;14.53;;;14.60;99.90;;;;;;5015769;28;20279;-44
2022/05/17 05:04:59;;;;;;;17.97;12.80;;;14.60;99.90;;;;;;5023706;28;20205;-47
2022/05/17 05:07:26;;;;;;;19.17;13.63;;;14.60;99.90;;;;;;5013930;28;20587;-46
2022/05/17 05:09:53;;;;;;;18.67;13.57;;;14.60;99.90;;;;;;5031764;28;20656;-44
2022/05/17 05:12:20;;;;;;;16.90;12.67;;;14.70;99.90;;;;;;5017653;28;20204;-46
2022/05/17 05:14:47;;;;;;;17.43;13.50;;;14.60;99.90;;;;;;5014565;28;20213;-45
2022/05/17 05:17:14;;;;;;;18.27;12.83;;;14.70;99.90;;;;;;5030509;28;20311;-46
2022/05/17 05:19:40;;;;;;;14.87;13.10;;;14.70;99.90;;;;;;5018784;28;20837;-46
2022/05/17 05:22:09;;;;;;;17.03;12.73;;;14.70;99.90;;;;;;5024415;28;20238;-46
2022/05/17 05:24:36;;;;;;;13.80;10.60;;;14.70;99.90;;;;;;5015337;28;20212;-44
2022/05/17 05:27:04;;;;;;;14.30;12.47;;;14.70;99.90;;;;;;5020314;28;20216;-44
2022/05/17 05:29:30;;;;;;;16.33;12.93;;;14.70;99.90;;;;;;5009293;28;20310;-45
2022/05/17 05:31:57;;;;;;;13.27;11.87;;;14.70;99.90;;;;;;5022950;28;20208;-45
2022/05/17 05:34:24;;;;;;;15.40;11.77;;;14.70;99.90;;;;;;5019611;28;20930;-47
2022/05/17 05:36:51;;;;;;;15.47;11.97;;;14.80;99.90;;;;;;5022755;28;20231;-45
2022/05/17 05:39:19;;;;;;;16.13;11.37;;;14.80;99.90;;;;;;5019823;28;20282;-48
2022/05/17 05:41:46;;;;;;;12.97;11.53;;;14.80;99.90;;;;;;5022559;28;20206;-45
2022/05/17 05:44:13;;;;;;;16.97;11.80;;;14.80;99.90;;;;;;5011336;28;20223;-46
2022/05/17 05:46:39;;;;;;;14.47;12.00;;;14.80;99.90;;;;;;5012608;28;20360;-44
2022/05/17 05:49:07;;;;;;;14.87;11.00;;;14.80;99.90;;;;;;5025542;28;20593;-44
2022/05/17 05:51:33;;;;;;;15.20;11.97;;;14.80;99.90;;;;;;5000291;28;20857;-46
2022/05/17 05:54:00;;;;;;;14.83;10.90;;;14.70;99.90;;;;;;5022834;28;20211;-45
2022/05/17 05:56:29;;;;;;;14.70;11.20;;;14.80;99.90;;;;;;5020258;28;20789;-45
2022/05/17 05:58:55;;;;;;;11.20;9.93;;;14.80;99.90;;;;;;5018144;28;20196;-46
2022/05/17 06:01:22;;;;;;;11.70;10.43;;;14.80;99.90;;;;;;5012950;28;20203;-46
2022/05/17 06:03:49;;;;;;;13.67;11.07;;;14.80;99.90;;;;;;5023833;28;20200;-44
2022/05/17 06:06:16;;;;;;;14.00;11.47;;;14.80;99.90;;;;;;5022283;28;20766;-46
2022/05/17 06:08:43;;;;;;;13.17;10.87;;;14.90;99.90;;;;;;5027724;28;20211;-45
2022/05/17 06:11:10;;;;;;;14.30;11.03;;;14.80;99.90;;;;;;5030818;28;20719;-45
2022/05/17 06:13:39;;;;;;;14.17;10.77;;;14.80;99.90;;;;;;5020067;28;20195;-45
2022/05/17 06:16:06;;;;;;;14.23;11.47;;;14.80;99.90;;;;;;5002794;28;20239;-45
2022/05/17 06:18:33;;;;;;;15.70;11.33;;;14.90;99.90;;;;;;5029965;28;20450;-45
2022/05/17 06:21:02;;;;;;;12.80;10.67;;;14.90;99.90;;;;;;5026586;28;20204;-44
2022/05/17 06:23:29;;;;;;;14.10;11.27;;;14.90;99.90;;;;;;5019265;28;20199;-46
2022/05/17 06:25:56;;;;;;;11.97;10.23;;;14.90;99.90;;;;;;5023568;28;20259;-47
2022/05/17 06:28:24;;;;;;;13.40;10.70;;;14.90;99.90;;;;;;5020108;28;20212;-49
2022/05/17 06:30:53;;;;;;;11.90;10.57;;;15.00;99.90;;;;;;5016666;28;20204;-44
2022/05/17 06:33:20;;;;;;;14.27;10.93;;;15.00;99.90;;;;;;5011761;28;20207;-46
2022/05/17 06:35:50;;;;;;;11.87;10.60;;;15.00;99.90;;;;;;5023413;28;20350;-44
2022/05/17 06:38:17;;;;;;;12.77;11.40;;;15.00;99.90;;;;;;5023345;28;20210;-48
2022/05/17 06:40:44;;;;;;;12.97;11.50;;;15.00;99.90;;;;;;5026919;28;21006;-47
2022/05/17 06:43:12;;;;;;;13.20;11.20;;;15.10;99.90;;;;;;5022307;28;20211;-44
2022/05/17 06:45:39;;;;;;;11.20;10.00;;;15.00;99.90;;;;;;5014486;28;20200;-44
2022/05/17 06:48:08;;;;;;;11.30;10.10;;;15.00;99.90;;;;;;5008213;28;20215;-45
2022/05/17 06:50:37;;;;;;;11.33;10.17;;;15.10;99.90;;;;;;5029180;28;20198;-44
2022/05/17 06:53:07;;;;;;;22.60;11.77;;;15.10;99.90;;;;;;5025614;28;20200;-45
2022/05/17 06:55:34;;;;;;;13.10;11.67;;;15.10;99.90;;;;;;5019276;28;20787;-47
2022/05/17 06:58:02;;;;;;;14.37;11.17;;;15.10;99.90;;;;;;5023225;28;20613;-45
2022/05/17 07:00:31;;;;;;;12.33;11.13;;;15.10;99.90;;;;;;5013301;28;20204;-44
2022/05/17 07:03:00;;;;;;;11.53;10.23;;;15.10;99.90;;;;;;5023233;28;20199;-45
2022/05/17 07:05:28;;;;;;;13.20;11.60;;;15.20;99.90;;;;;;5009256;28;20574;-46
2022/05/17 07:07:55;;;;;;;13.67;12.20;;;15.20;99.90;;;;;;5023272;28;20208;-44
2022/05/17 07:13:10;;;;;;;14.80;12.43;;;15.20;99.90;;;;;;5023128;28;20622;-45
2022/05/17 07:15:37;;;;;;;15.10;13.50;;;15.20;99.90;;;;;;5019696;28;20826;-45
2022/05/17 07:18:05;;;;;;;16.23;13.77;;;15.20;99.90;;;;;;5017556;28;20569;-44
2022/05/17 07:20:34;;;;;;;17.03;13.93;;;15.10;99.90;;;;;;5006039;28;20221;-45
2022/05/17 07:23:03;;;;;;;15.67;14.00;;;15.10;99.90;;;;;;5028685;28;20226;-45
2022/05/17 07:25:31;;;;;;;15.80;13.40;;;15.10;99.90;;;;;;5018745;28;20208;-46
2022/05/17 07:27:58;;;;;;;18.43;14.37;;;15.10;99.90;;;;;;5023005;28;20207;-44
2022/05/17 07:30:25;;;;;;;20.77;13.60;;;15.10;99.90;;;;;;5019575;28;20224;-47
2022/05/17 07:32:52;;;;;;;19.87;13.77;;;15.20;99.90;;;;;;5016978;28;20203;-45
2022/05/17 07:35:19;;;;;;;17.17;13.13;;;15.10;99.90;;;;;;5007283;28;20203;-46
2022/05/17 07:37:48;;;;;;;16.90;13.37;;;15.10;99.90;;;;;;5026002;28;20214;-45
2022/05/17 07:40:15;;;;;;;18.00;13.23;;;15.20;99.90;;;;;;5035103;28;20196;-44
2022/05/17 07:42:42;;;;;;;18.13;13.33;;;15.20;99.90;;;;;;5023473;28;20446;-45
2022/05/17 07:45:11;;;;;;;17.23;13.17;;;15.20;99.90;;;;;;5026182;28;20231;-47
2022/05/17 07:47:38;;;;;;;19.87;13.47;;;15.20;99.90;;;;;;5023227;28;20220;-44
2022/05/17 07:50:06;;;;;;;16.50;13.40;;;15.30;99.90;;;;;;5020504;28;20246;-46
2022/05/17 07:52:33;;;;;;;17.43;13.10;;;15.30;99.90;;;;;;5011737;28;20269;-45
2022/05/17 07:55:02;;;;;;;15.87;12.60;;;15.40;99.90;;;;;;5033586;28;20211;-45
2022/05/17 07:57:29;;;;;;;17.97;12.63;;;15.40;99.90;;;;;;5015645;28;20216;-44
2022/05/17 07:59:56;;;;;;;13.43;11.27;;;15.40;99.90;;;;;;5026111;28;20271;-45
2022/05/17 08:02:23;;;;;;;15.30;12.07;;;15.50;99.90;;;;;;5022726;28;20200;-47
2022/05/17 08:04:50;;;;;;;14.47;10.87;;;15.60;99.90;;;;;;5019503;28;20195;-47
2022/05/17 08:07:17;;;;;;;11.50;10.30;;;15.70;99.90;;;;;;5010888;28;20223;-49
2022/05/17 08:09:44;;;;;;;13.37;10.50;;;15.70;99.90;;;;;;5026953;28;20215;-44
2022/05/17 08:12:12;;;;;;;11.70;9.63;;;15.70;99.90;;;;;;5029134;28;20740;-48
2022/05/17 08:14:40;;;;;;;11.63;9.37;;;15.70;99.90;;;;;;5022355;28;20200;-44
2022/05/17 08:17:09;;;;;;;9.90;8.90;;;15.80;99.90;;;;;;5025480;28;20224;-45
2022/05/17 08:19:36;;;;;;;8.73;7.83;;;15.80;99.90;;;;;;5022603;28;20935;-45
2022/05/17 08:22:04;;;;;;;8.63;7.60;;;15.80;99.90;;;;;;5005895;28;20258;-47
2022/05/17 08:27:31;;;;;;;8.73;7.37;;;15.80;99.90;;;;;;5026225;28;20860;-46
2022/05/17 08:27:36;;;;;;;9.07;8.07;;;15.80;99.90;;;;;;5018831;28;20220;-45
2022/05/17 08:30:10;;;;;;;9.10;6.63;;;15.80;99.90;;;;;;5025376;28;20243;-48
2022/05/17 08:35:29;;;;;;;8.40;7.60;;;15.80;99.90;;;;;;5015436;28;20204;-47
2022/05/17 08:37:56;;;;;;;7.57;6.80;;;15.80;99.90;;;;;;5012276;28;20238;-46
2022/05/17 08:40:24;;;;;;;7.83;6.80;;;15.80;99.90;;;;;;5030835;28;20191;-46
2022/05/17 08:43:11;;;;;;;6.83;5.77;;;15.80;99.90;;;;;;5024927;28;20200;-46
2022/05/17 08:45:44;;;;;;;6.33;5.73;;;15.80;99.90;;;;;;5022635;28;20946;-47
2022/05/17 08:48:17;;;;;;;6.40;5.73;;;15.80;99.90;;;;;;5024353;28;20230;-44
2022/05/17 08:50:46;;;;;;;7.23;6.63;;;15.90;99.90;;;;;;5023466;28;20208;-47
2022/05/17 08:53:17;;;;;;;8.03;6.57;;;16.00;99.90;;;;;;5004432;28;20617;-47
2022/05/17 08:55:49;;;;;;;7.33;6.63;;;16.00;99.90;;;;;;5025771;28;20611;-46
2022/05/17 08:58:22;;;;;;;7.30;6.60;;;16.10;99.90;;;;;;5023148;28;20291;-44
2022/05/17 09:00:54;;;;;;;7.20;6.53;;;16.10;99.90;;;;;;5024728;28;20211;-44
2022/05/17 09:03:39;;;;;;;7.37;6.67;;;16.10;99.90;;;;;;5021763;28;20728;-47
2022/05/17 09:06:15;;;;;;;6.70;6.17;;;16.20;99.90;;;;;;5025000;28;20704;-45
2022/05/17 09:08:51;;;;;;;6.40;5.90;;;16.20;99.90;;;;;;5008295;28;20203;-44
2022/05/17 09:11:22;;;;;;;8.63;7.83;;;16.40;99.90;;;;;;5034092;28;20213;-49
2022/05/17 09:13:56;;;;;;;7.30;6.70;;;16.40;99.90;;;;;;5023645;28;20286;-48
2022/05/17 09:16:27;;;;;;;6.93;6.33;;;16.40;99.90;;;;;;5021306;28;20225;-48
2022/05/17 09:18:54;;;;;;;6.03;5.53;;;16.50;99.90;;;;;;5024958;28;20652;-45
2022/05/17 09:21:29;;;;;;;6.40;5.80;;;16.50;99.90;;;;;;5021699;28;20203;-46
2022/05/17 09:23:59;;;;;;;6.90;6.30;;;16.60;99.90;;;;;;5013978;28;20298;-46
2022/05/17 09:26:28;;;;;;;6.10;5.60;;;16.70;99.90;;;;;;5022269;28;20310;-48
2022/05/17 09:29:01;;;;;;;6.10;5.50;;;16.80;99.90;;;;;;5024597;28;20726;-44
2022/05/17 09:31:31;;;;;;;7.73;5.33;;;17.00;99.90;;;;;;5020280;28;20279;-44
2022/05/17 09:34:02;;;;;;;6.03;5.53;;;17.00;99.90;;;;;;5024137;28;20203;-44
2022/05/17 09:36:40;;;;;;;5.67;5.27;;;17.00;99.90;;;;;;5020060;28;20227;-44
2022/05/17 09:39:08;;;;;;;5.47;5.10;;;17.10;99.90;;;;;;5010251;28;20200;-49
2022/05/17 09:41:40;;;;;;;5.67;5.17;;;17.00;99.90;;;;;;5031795;28;20202;-46
2022/05/17 09:44:13;;;;;;;6.13;5.00;;;17.00;99.90;;;;;;5027045;28;20212;-49
2022/05/17 09:46:45;;;;;;;5.33;4.93;;;17.10;99.90;;;;;;5021672;28;20219;-45
2022/05/17 09:55:07;;;;;;;4.00;3.70;;;17.10;99.90;;;;;;5008703;28;20751;-44
2022/05/17 09:57:36;;;;;;;4.80;4.40;;;17.00;99.90;;;;;;5022969;28;20208;-45
2022/05/17 10:00:12;;;;;;;4.40;4.10;;;17.10;99.90;;;;;;5023154;28;20228;-47
2022/05/17 10:02:49;;;;;;;4.00;3.70;;;17.20;99.90;;;;;;5023220;28;20222;-44
2022/05/17 10:05:21;;;;;;;3.63;3.37;;;17.10;99.90;;;;;;5020599;28;20199;-46
2022/05/17 10:07:53;;;;;;;4.20;3.90;;;17.20;99.90;;;;;;5023682;28;20219;-46
2022/05/17 10:10:37;;;;;;;3.70;3.47;;;17.30;99.90;;;;;;5012641;28;20227;-45
2022/05/17 10:13:16;;;;;;;4.07;3.83;;;17.30;99.90;;;;;;5029077;28;20209;-46
2022/05/17 10:15:47;;;;;;;3.90;3.60;;;17.20;99.90;;;;;;5027246;28;20299;-43
2022/05/17 10:18:29;;;;;;;4.00;3.70;;;17.30;99.90;;;;;;5020746;28;20390;-48
2022/05/17 10:21:09;;;;;;;4.27;3.97;;;17.50;99.90;;;;;;5023667;28;20196;-44
2022/05/17 10:23:42;;;;;;;5.00;3.87;;;17.60;99.90;;;;;;5021506;28;20196;-44
2022/05/17 10:26:13;;;;;;;3.90;3.70;;;17.70;99.90;;;;;;5013370;28;20688;-46
2022/05/17 10:28:52;;;;;;;4.07;3.77;;;17.90;99.90;;;;;;5022620;28;20266;-43
2022/05/17 10:31:24;;;;;;;3.97;3.77;;;17.90;99.90;;;;;;5013757;28;20294;-49
2022/05/17 10:34:10;;;;;;;3.70;3.50;;;17.90;99.90;;;;;;5021748;28;20246;-43
2022/05/17 10:36:43;;;;;;;4.90;4.50;;;18.00;99.90;;;;;;5021113;28;20215;-45
2022/05/17 10:39:22;;;;;;;3.57;3.27;;;17.90;99.90;;;;;;5022791;28;20208;-47
2022/05/17 10:41:50;;;;;;;3.07;2.87;;;18.00;99.90;;;;;;5014133;28;20261;-45
2022/05/17 10:44:21;;;;;;;4.60;3.10;;;18.00;99.90;;;;;;5029649;28;20219;-46
2022/05/17 10:46:55;;;;;;;3.87;3.53;;;18.00;99.90;;;;;;5025049;28;20322;-45
2022/05/17 10:49:30;;;;;;;3.50;3.30;;;18.20;99.90;;;;;;5019275;28;20203;-46
2022/05/17 10:52:10;;;;;;;4.20;3.80;;;18.20;99.90;;;;;;5023527;28;20253;-45
2022/05/17 10:54:50;;;;;;;4.73;3.47;;;18.30;99.90;;;;;;5016766;28;20187;-44
2022/05/17 10:57:28;;;;;;;3.80;3.60;;;18.50;99.90;;;;;;5005962;28;20219;-49
2022/05/17 11:00:01;;;;;;;4.00;3.70;;;18.50;99.90;;;;;;5028790;28;20657;-44
2022/05/17 11:02:59;;;;;;;4.23;3.60;;;18.40;99.90;;;;;;5020272;28;20252;-44
2022/05/17 11:05:38;;;;;;;3.97;3.67;;;18.40;99.90;;;;;;5019541;28;20589;-45
2022/05/17 11:08:13;;;;;;;4.30;3.67;;;18.30;99.90;;;;;;5023151;28;20557;-44
2022/05/17 11:10:52;;;;;;;4.00;3.80;;;18.20;99.90;;;;;;5024012;28;20219;-45
2022/05/17 11:13:25;;;;;;;3.70;3.40;;;18.20;99.90;;;;;;5005995;28;20594;-45
2022/05/17 11:16:01;;;;;;;4.53;4.23;;;18.20;99.90;;;;;;5029228;28;20308;-44
2022/05/17 11:18:39;;;;;;;3.77;3.47;;;18.10;99.90;;;;;;5023310;28;20887;-45
2022/05/17 11:21:12;;;;;;;3.73;3.50;;;18.10;99.90;;;;;;5025631;28;20200;-44
2022/05/17 11:23:48;;;;;;;4.07;3.77;;;18.10;99.90;;;;;;5025685;28;20200;-44
2022/05/17 11:26:37;;;;;;;3.90;3.60;;;18.10;99.90;;;;;;5023602;28;20230;-44
2022/05/17 11:29:22;;;;;;;4.10;3.77;;;18.30;99.90;;;;;;5011263;28;20365;-49
2022/05/17 11:31:55;;;;;;;3.87;3.57;;;18.40;99.90;;;;;;5032897;28;20211;-45
2022/05/17 11:34:42;;;;;;;4.30;4.00;;;18.60;99.90;;;;;;5022539;28;20270;-47
2022/05/17 11:37:30;;;;;;;5.30;4.80;;;18.70;99.90;;;;;;5024656;28;20253;-45
2022/05/17 11:39:57;;;;;;;4.40;4.10;;;18.90;99.90;;;;;;5033443;28;20200;-44
2022/05/17 11:42:31;;;;;;;4.17;3.80;;;18.90;99.90;;;;;;5022468;28;20253;-45
2022/05/17 11:45:20;;;;;;;4.00;3.70;;;19.00;99.90;;;;;;5014270;28;20211;-46
2022/05/17 11:47:53;;;;;;;4.07;3.77;;;19.10;99.90;;;;;;5021529;28;20704;-45
2022/05/17 11:50:43;;;;;;;4.53;3.73;;;19.00;99.90;;;;;;5022332;28;20204;-46
2022/05/17 11:53:43;;;;;;;3.67;3.37;;;18.80;99.90;;;;;;5023840;28;20282;-47
2022/05/17 11:56:21;;;;;;;5.20;4.23;;;18.80;99.90;;;;;;5024021;28;20224;-46
2022/05/17 11:58:52;;;;;;;4.23;3.93;;;18.70;99.90;;;;;;5011334;28;20211;-46
2022/05/17 12:01:45;;;;;;;4.70;4.27;;;18.80;99.90;;;;;;5031647;28;20195;-51
2022/05/17 12:04:39;;;;;;;4.63;4.27;;;18.80;99.90;;;;;;5018690;28;20771;-49
2022/05/17 12:07:23;;;;;;;5.33;4.90;;;18.80;99.90;;;;;;5024690;28;20224;-45
2022/05/17 12:09:52;;;;;;;6.27;5.63;;;18.90;99.90;;;;;;5032923;28;20210;-44
2022/05/17 12:12:41;;;;;;;6.07;5.43;;;18.80;99.90;;;;;;5026538;28;20208;-49
2022/05/17 12:15:17;;;;;;;6.53;5.93;;;18.70;99.90;;;;;;5011376;28;20298;-46
2022/05/17 12:17:57;;;;;;;6.33;5.77;;;18.50;99.90;;;;;;5029130;28;20223;-46
2022/05/17 12:20:32;;;;;;;6.33;5.73;;;18.50;99.90;;;;;;5021692;28;20896;-45
2022/05/17 12:23:06;;;;;;;6.50;5.90;;;18.50;99.90;;;;;;5025983;28;20215;-45
2022/05/17 12:25:39;;;;;;;6.60;6.00;;;18.40;99.90;;;;;;5023138;28;20215;-45
2022/05/17 12:28:10;;;;;;;7.30;6.70;;;18.30;99.90;;;;;;5023518;28;20204;-47
2022/05/17 12:31:00;;;;;;;6.40;5.90;;;18.30;99.90;;;;;;5010776;28;20211;-46
2022/05/17 12:33:29;;;;;;;7.23;6.57;;;18.40;99.90;;;;;;5015469;28;20194;-47
2022/05/17 12:36:13;;;;;;;7.10;6.43;;;18.40;99.90;;;;;;5022274;28;20223;-45
2022/05/17 12:44:19;;;;;;;6.70;6.17;;;18.30;99.90;;;;;;5010137;28;20200;-45
2022/05/17 12:46:48;;;;;;;7.23;6.57;;;18.40;99.90;;;;;;5027408;28;20216;-44
2022/05/17 12:49:17;;;;;;;6.10;5.40;;;18.50;99.90;;;;;;5021397;28;20200;-46
2022/05/17 12:51:47;;;;;;;6.03;5.53;;;18.60;99.90;;;;;;5023716;28;20251;-45
2022/05/17 12:54:19;;;;;;;5.27;4.87;;;18.70;99.90;;;;;;5016503;28;20546;-49
2022/05/17 12:56:47;;;;;;;6.00;5.27;;;18.80;99.90;;;;;;5024733;28;20251;-44
2022/05/17 12:59:23;;;;;;;5.53;5.03;;;18.80;99.90;;;;;;5010358;28;20279;-45
2022/05/17 13:01:57;;;;;;;5.67;4.83;;;18.90;99.90;;;;;;5031802;28;20203;-44
2022/05/17 13:04:29;;;;;;;4.30;3.90;;;19.00;99.90;;;;;;5018594;28;20196;-45
2022/05/17 13:07:12;;;;;;;5.07;4.53;;;19.10;99.90;;;;;;5018585;28;20306;-45
2022/05/17 13:09:56;;;;;;;4.60;4.20;;;19.20;99.90;;;;;;5028760;28;20203;-50
2022/05/17 13:12:25;;;;;;;4.43;4.07;;;19.20;99.90;;;;;;5020761;28;20187;-45
2022/05/17 13:14:53;;;;;;;4.40;3.97;;;19.30;99.90;;;;;;5024112;28;20204;-49
2022/05/17 13:17:23;;;;;;;5.30;4.80;;;19.30;99.90;;;;;;5008928;28;20222;-49